sensor_id;sensor_type;location;lat;lon;timestamp;pressure;altitude;pressure_sealevel;temperature;humidity
30554;BME280;17335;50.720;7.452;2023-04-04T00:00:34;100451.06;;;-1.71;100.00
30554;BME280;17335;50.720;7.452;2023-04-04T00:03:00;100450.38;;;-1.78;100.00
30554;BME280;17335;50.720;7.452;2023-04-04T00:05:27;100450.47;;;-1.82;100.00
30554;BME280;17335;50.720;7.452;2023-04-04T00:07:54;100454.91;;;-1.84;100.00
30554;BME280;17335;50.720;7.452;2023-04-04T00:10:21;100448.78;;;-1.83;100.00
30554;BME280;17335;50.720;7.452;2023-04-04T00:12:48;100441.72;;;-1.83;100.00
30554;BME280;17335;50.720;7.452;2023-04-04T00:15:15;100442.59;;;-1.82;100.00
30554;BME280;17335;50.720;7.452;2023-04-04T00:17:41;100441.84;;;-1.88;100.00
30554;BME280;17335;50.720;7.452;2023-04-04T00:20:08;100440.94;;;-1.86;100.00
30554;BME280;17335;50.720;7.452;2023-04-04T00:22:35;100448.09;;;-1.92;100.00
30554;BME280;17335;50.720;7.452;2023-04-04T00:25:02;100438.44;;;-1.93;100.00
30554;BME280;17335;50.720;7.452;2023-04-04T00:27:29;100445.47;;;-1.92;100.00
30554;BME280;17335;50.720;7.452;2023-04-04T00:29:56;100446.25;;;-1.88;100.00
30554;BME280;17335;50.720;7.452;2023-04-04T00:32:23;100447.16;;;-1.89;100.00
30554;BME280;17335;50.720;7.452;2023-04-04T00:34:51;100448.97;;;-1.93;100.00
30554;BME280;17335;50.720;7.452;2023-04-04T00:37:20;100446.44;;;-1.96;100.00
30554;BME280;17335;50.720;7.452;2023-04-04T00:39:47;100462.13;;;-1.93;100.00
30554;BME280;17335;50.720;7.452;2023-04-04T00:42:13;100451.78;;;-1.99;100.00
30554;BME280;17335;50.720;7.452;2023-04-04T00:44:40;100451.78;;;-1.99;100.00
30554;BME280;17335;50.720;7.452;2023-04-04T00:47:07;100456.22;;;-2.01;100.00
30554;BME280;17335;50.720;7.452;2023-04-04T00:49:33;100451.72;;;-1.96;100.00
30554;BME280;17335;50.720;7.452;2023-04-04T00:52:00;100458.72;;;-1.96;100.00
30554;BME280;17335;50.720;7.452;2023-04-04T00:54:28;100461.47;;;-1.99;100.00
30554;BME280;17335;50.720;7.452;2023-04-04T00:56:56;100457.06;;;-1.99;100.00
30554;BME280;17335;50.720;7.452;2023-04-04T00:59:25;100461.38;;;-1.98;100.00
30554;BME280;17335;50.720;7.452;2023-04-04T01:01:53;100451.63;;;-1.93;100.00
30554;BME280;17335;50.720;7.452;2023-04-04T01:04:20;100459.69;;;-1.99;100.00
30554;BME280;17335;50.720;7.452;2023-04-04T01:06:47;100461.56;;;-2.04;100.00
30554;BME280;17335;50.720;7.452;2023-04-04T01:09:15;100460.03;;;-2.13;100.00
30554;BME280;17335;50.720;7.452;2023-04-04T01:11:42;100457.41;;;-2.14;100.00
30554;BME280;17335;50.720;7.452;2023-04-04T01:14:09;100457.66;;;-2.23;100.00
30554;BME280;17335;50.720;7.452;2023-04-04T01:16:37;100457.72;;;-2.27;100.00
30554;BME280;17335;50.720;7.452;2023-04-04T01:19:05;100459.56;;;-2.30;100.00
30554;BME280;17335;50.720;7.452;2023-04-04T01:21:35;100458.94;;;-2.41;100.00
30554;BME280;17335;50.720;7.452;2023-04-04T01:24:05;100463.41;;;-2.45;100.00
30554;BME280;17335;50.720;7.452;2023-04-04T01:26:34;100456.41;;;-2.46;100.00
30554;BME280;17335;50.720;7.452;2023-04-04T01:29:01;100466.06;;;-2.47;100.00
30554;BME280;17335;50.720;7.452;2023-04-04T01:34:51;100463.47;;;-2.48;100.00
30554;BME280;17335;50.720;7.452;2023-04-04T01:37:26;100463.53;;;-2.51;100.00
30554;BME280;17335;50.720;7.452;2023-04-04T01:40:07;100464.59;;;-2.60;100.00
30554;BME280;17335;50.720;7.452;2023-04-04T01:42:37;100460.34;;;-2.66;100.00
30554;BME280;17335;50.720;7.452;2023-04-04T01:45:06;100458.59;;;-2.67;100.00
30554;BME280;17335;50.720;7.452;2023-04-04T01:47:39;100456.84;;;-2.65;100.00
30554;BME280;17335;50.720;7.452;2023-04-04T01:50:08;100448.84;;;-2.61;100.00
30554;BME280;17335;50.720;7.452;2023-04-04T01:52:35;100453.19;;;-2.59;100.00
30554;BME280;17335;50.720;7.452;2023-04-04T01:55:03;100438.34;;;-2.61;100.00
30554;BME280;17335;50.720;7.452;2023-04-04T01:57:29;100444.50;;;-2.61;100.00
30554;BME280;17335;50.720;7.452;2023-04-04T01:59:56;100435.91;;;-2.69;100.00
30554;BME280;17335;50.720;7.452;2023-04-04T02:02:23;100440.22;;;-2.67;100.00
30554;BME280;17335;50.720;7.452;2023-04-04T02:04:50;100445.56;;;-2.70;100.00
30554;BME280;17335;50.720;7.452;2023-04-04T02:07:16;100448.09;;;-2.67;100.00
30554;BME280;17335;50.720;7.452;2023-04-04T02:09:43;100441.13;;;-2.68;100.00
30554;BME280;17335;50.720;7.452;2023-04-04T02:12:10;100447.41;;;-2.75;100.00
30554;BME280;17335;50.720;7.452;2023-04-04T02:14:37;100445.78;;;-2.80;100.00
30554;BME280;17335;50.720;7.452;2023-04-04T02:17:04;100452.13;;;-2.91;100.00
30554;BME280;17335;50.720;7.452;2023-04-04T02:19:31;100451.34;;;-2.96;100.00
30554;BME280;17335;50.720;7.452;2023-04-04T02:21:57;100463.72;;;-3.01;100.00
30554;BME280;17335;50.720;7.452;2023-04-04T02:24:24;100455.81;;;-2.99;100.00
30554;BME280;17335;50.720;7.452;2023-04-04T02:26:50;100452.28;;;-2.98;100.00
30554;BME280;17335;50.720;7.452;2023-04-04T02:29:17;100453.13;;;-2.96;100.00
30554;BME280;17335;50.720;7.452;2023-04-04T02:31:44;100461.00;;;-2.96;100.00
30554;BME280;17335;50.720;7.452;2023-04-04T02:34:11;100450.50;;;-2.96;100.00
30554;BME280;17335;50.720;7.452;2023-04-04T02:36:38;100446.03;;;-2.93;100.00
30554;BME280;17335;50.720;7.452;2023-04-04T02:39:04;100443.56;;;-2.99;100.00
30554;BME280;17335;50.720;7.452;2023-04-04T02:41:31;100438.34;;;-3.00;100.00
30554;BME280;17335;50.720;7.452;2023-04-04T02:43:57;100437.41;;;-2.99;100.00
30554;BME280;17335;50.720;7.452;2023-04-04T02:46:24;100429.69;;;-3.06;100.00
30554;BME280;17335;50.720;7.452;2023-04-04T02:48:51;100424.59;;;-3.15;100.00
30554;BME280;17335;50.720;7.452;2023-04-04T02:51:18;100429.94;;;-3.18;100.00
30554;BME280;17335;50.720;7.452;2023-04-04T02:53:44;100434.38;;;-3.22;100.00
30554;BME280;17335;50.720;7.452;2023-04-04T02:56:54;100434.38;;;-3.22;100.00
30554;BME280;17335;50.720;7.452;2023-04-04T02:59:21;100431.66;;;-3.17;100.00
30554;BME280;17335;50.720;7.452;2023-04-04T03:01:48;100425.63;;;-3.22;100.00
30554;BME280;17335;50.720;7.452;2023-04-04T03:04:14;100422.13;;;-3.21;100.00
30554;BME280;17335;50.720;7.452;2023-04-04T03:06:41;100409.84;;;-3.21;100.00
30554;BME280;17335;50.720;7.452;2023-04-04T03:09:11;100407.16;;;-3.17;100.00
30554;BME280;17335;50.720;7.452;2023-04-04T03:11:37;100414.09;;;-3.15;100.00
30554;BME280;17335;50.720;7.452;2023-04-04T03:14:04;100406.31;;;-3.18;100.00
30554;BME280;17335;50.720;7.452;2023-04-04T03:16:30;100407.28;;;-3.24;100.00
30554;BME280;17335;50.720;7.452;2023-04-04T03:18:57;100411.59;;;-3.19;100.00
30554;BME280;17335;50.720;7.452;2023-04-04T03:21:24;100405.66;;;-3.29;100.00
30554;BME280;17335;50.720;7.452;2023-04-04T03:23:51;100405.59;;;-3.26;100.00
30554;BME280;17335;50.720;7.452;2023-04-04T03:26:18;100401.19;;;-3.26;100.00
30554;BME280;17335;50.720;7.452;2023-04-04T03:28:44;100407.28;;;-3.24;100.00
30554;BME280;17335;50.720;7.452;2023-04-04T03:31:11;100417.78;;;-3.24;100.00
30554;BME280;17335;50.720;7.452;2023-04-04T03:33:38;100412.56;;;-3.27;100.00
30554;BME280;17335;50.720;7.452;2023-04-04T03:36:11;100407.53;;;-3.36;100.00
30554;BME280;17335;50.720;7.452;2023-04-04T03:38:39;100419.81;;;-3.38;100.00
30554;BME280;17335;50.720;7.452;2023-04-04T03:41:06;100415.50;;;-3.41;100.00
30554;BME280;17335;50.720;7.452;2023-04-04T03:43:33;100413.53;;;-3.29;100.00
30554;BME280;17335;50.720;7.452;2023-04-04T03:46:04;100404.69;;;-3.27;100.00
30554;BME280;17335;50.720;7.452;2023-04-04T03:48:31;100407.38;;;-3.28;100.00
30554;BME280;17335;50.720;7.452;2023-04-04T03:50:59;100409.03;;;-3.24;100.00
30554;BME280;17335;50.720;7.452;2023-04-04T03:53:27;100408.31;;;-3.32;100.00
30554;BME280;17335;50.720;7.452;2023-04-04T03:55:55;100403.22;;;-3.38;100.00
30554;BME280;17335;50.720;7.452;2023-04-04T03:58:22;100411.16;;;-3.42;100.00
30554;BME280;17335;50.720;7.452;2023-04-04T04:00:49;100406.75;;;-3.41;100.00
30554;BME280;17335;50.720;7.452;2023-04-04T04:03:15;100401.56;;;-3.44;100.00
30554;BME280;17335;50.720;7.452;2023-04-04T04:05:42;100405.94;;;-3.45;100.00
30554;BME280;17335;50.720;7.452;2023-04-04T04:08:09;100410.34;;;-3.45;100.00
30554;BME280;17335;50.720;7.452;2023-04-04T04:10:35;100416.50;;;-3.48;100.00
30554;BME280;17335;50.720;7.452;2023-04-04T04:13:02;100414.88;;;-3.53;100.00
30554;BME280;17335;50.720;7.452;2023-04-04T04:15:29;100410.59;;;-3.58;100.00
30554;BME280;17335;50.720;7.452;2023-04-04T04:17:56;100416.66;;;-3.54;100.00
30554;BME280;17335;50.720;7.452;2023-04-04T04:20:22;100415.84;;;-3.58;100.00
30554;BME280;17335;50.720;7.452;2023-04-04T04:22:49;100405.38;;;-3.59;100.00
30554;BME280;17335;50.720;7.452;2023-04-04T04:25:19;100412.44;;;-3.63;100.00
30554;BME280;17335;50.720;7.452;2023-04-04T04:27:46;100412.31;;;-3.58;100.00
30554;BME280;17335;50.720;7.452;2023-04-04T04:30:13;100400.91;;;-3.54;100.00
30554;BME280;17335;50.720;7.452;2023-04-04T04:32:39;100398.28;;;-3.55;100.00
30554;BME280;17335;50.720;7.452;2023-04-04T04:35:07;100400.03;;;-3.56;100.00
30554;BME280;17335;50.720;7.452;2023-04-04T04:37:33;100392.13;;;-3.54;100.00
30554;BME280;17335;50.720;7.452;2023-04-04T04:39:59;100388.66;;;-3.55;100.00
30554;BME280;17335;50.720;7.452;2023-04-04T04:42:27;100387.78;;;-3.54;100.00
30554;BME280;17335;50.720;7.452;2023-04-04T04:44:54;100385.84;;;-3.47;100.00
30554;BME280;17335;50.720;7.452;2023-04-04T04:47:21;100393.72;;;-3.46;100.00
30554;BME280;17335;50.720;7.452;2023-04-04T04:49:48;100392.09;;;-3.53;100.00
30554;BME280;17335;50.720;7.452;2023-04-04T04:52:15;100396.56;;;-3.56;100.00
30554;BME280;17335;50.720;7.452;2023-04-04T04:54:41;100385.28;;;-3.62;100.00
30554;BME280;17335;50.720;7.452;2023-04-04T04:57:09;100387.09;;;-3.65;100.00
30554;BME280;17335;50.720;7.452;2023-04-04T04:59:35;100376.69;;;-3.70;100.00
30554;BME280;17335;50.720;7.452;2023-04-04T05:02:02;100385.34;;;-3.66;100.00
30554;BME280;17335;50.720;7.452;2023-04-04T05:04:28;100387.94;;;-3.63;100.00
30554;BME280;17335;50.720;7.452;2023-04-04T05:06:55;100394.06;;;-3.63;100.00
30554;BME280;17335;50.720;7.452;2023-04-04T05:09:21;100392.25;;;-3.59;100.00
30554;BME280;17335;50.720;7.452;2023-04-04T05:11:48;100393.16;;;-3.62;100.00
30554;BME280;17335;50.720;7.452;2023-04-04T05:14:15;100393.94;;;-3.58;100.00
30554;BME280;17335;50.720;7.452;2023-04-04T05:16:41;100400.94;;;-3.57;100.00
30554;BME280;17335;50.720;7.452;2023-04-04T05:19:08;100396.47;;;-3.52;100.00
30554;BME280;17335;50.720;7.452;2023-04-04T05:21:34;100398.25;;;-3.52;100.00
30554;BME280;17335;50.720;7.452;2023-04-04T05:24:00;100399.03;;;-3.49;100.00
30554;BME280;17335;50.720;7.452;2023-04-04T05:26:27;100406.91;;;-3.49;100.00
30554;BME280;17335;50.720;7.452;2023-04-04T05:28:55;100405.09;;;-3.45;100.00
30554;BME280;17335;50.720;7.452;2023-04-04T05:31:21;100412.06;;;-3.44;100.00
30554;BME280;17335;50.720;7.452;2023-04-04T05:33:48;100395.44;;;-3.45;100.00
30554;BME280;17335;50.720;7.452;2023-04-04T05:36:14;100403.34;;;-3.46;100.00
30554;BME280;17335;50.720;7.452;2023-04-04T05:38:41;100406.00;;;-3.48;100.00
30554;BME280;17335;50.720;7.452;2023-04-04T05:41:08;100398.25;;;-3.52;100.00
30554;BME280;17335;50.720;7.452;2023-04-04T05:43:34;100401.84;;;-3.60;100.00
30554;BME280;17335;50.720;7.452;2023-04-04T05:46:02;100401.81;;;-3.58;100.00
30554;BME280;17335;50.720;7.452;2023-04-04T05:48:28;100404.47;;;-3.60;100.00
30554;BME280;17335;50.720;7.452;2023-04-04T05:50:54;100407.84;;;-3.53;100.00
30554;BME280;17335;50.720;7.452;2023-04-04T05:53:21;100404.28;;;-3.49;100.00
30554;BME280;17335;50.720;7.452;2023-04-04T05:55:51;100411.16;;;-3.42;100.00
30554;BME280;17335;50.720;7.452;2023-04-04T05:58:18;100409.41;;;-3.43;100.00
30554;BME280;17335;50.720;7.452;2023-04-04T06:00:45;100402.31;;;-3.37;100.00
30554;BME280;17335;50.720;7.452;2023-04-04T06:03:11;100415.16;;;-3.24;100.00
30554;BME280;17335;50.720;7.452;2023-04-04T06:05:38;100414.19;;;-3.18;100.00
30554;BME280;17335;50.720;7.452;2023-04-04T06:08:04;100415.63;;;-3.05;100.00
30554;BME280;17335;50.720;7.452;2023-04-04T06:10:31;100411.97;;;-2.97;100.00
30554;BME280;17335;50.720;7.452;2023-04-04T06:12:57;100425.00;;;-2.93;100.00
30554;BME280;17335;50.720;7.452;2023-04-04T06:15:24;100418.69;;;-2.84;100.00
30554;BME280;17335;50.720;7.452;2023-04-04T06:17:50;100418.41;;;-2.72;100.00
30554;BME280;17335;50.720;7.452;2023-04-04T06:20:17;100414.78;;;-2.65;100.00
30554;BME280;17335;50.720;7.452;2023-04-04T06:22:46;100417.31;;;-2.61;100.00
30554;BME280;17335;50.720;7.452;2023-04-04T06:25:12;100427.63;;;-2.52;100.00
30554;BME280;17335;50.720;7.452;2023-04-04T06:27:39;100432.75;;;-2.48;100.00
30554;BME280;17335;50.720;7.452;2023-04-04T06:30:06;100437.97;;;-2.45;100.00
30554;BME280;17335;50.720;7.452;2023-04-04T06:32:37;100438.63;;;-2.35;100.00
30554;BME280;17335;50.720;7.452;2023-04-04T06:35:04;100436.69;;;-2.27;100.00
30554;BME280;17335;50.720;7.452;2023-04-04T06:37:34;100443.44;;;-2.16;100.00
30554;BME280;17335;50.720;7.452;2023-04-04T06:40:07;100446.72;;;-2.08;100.00
30554;BME280;17335;50.720;7.452;2023-04-04T06:43:00;100443.72;;;-1.93;100.00
30554;BME280;17335;50.720;7.452;2023-04-04T06:45:28;100439.06;;;-1.81;100.00
30554;BME280;17335;50.720;7.452;2023-04-04T06:47:58;100434.41;;;-1.70;100.00
30554;BME280;17335;50.720;7.452;2023-04-04T06:50:33;100427.91;;;-1.58;100.00
30554;BME280;17335;50.720;7.452;2023-04-04T06:53:00;100431.00;;;-1.42;100.00
30554;BME280;17335;50.720;7.452;2023-04-04T06:55:28;100436.63;;;-1.23;100.00
30554;BME280;17335;50.720;7.452;2023-04-04T06:57:57;100422.97;;;-1.06;100.00
30554;BME280;17335;50.720;7.452;2023-04-04T07:00:24;100423.34;;;-0.89;100.00
30554;BME280;17335;50.720;7.452;2023-04-04T07:02:57;100427.22;;;-0.72;100.00
30554;BME280;17335;50.720;7.452;2023-04-04T07:05:25;100423.03;;;-0.50;100.00
30554;BME280;17335;50.720;7.452;2023-04-04T07:07:52;100419.78;;;-0.31;100.00
30554;BME280;17335;50.720;7.452;2023-04-04T07:10:23;100415.50;;;-0.07;100.00
30554;BME280;17335;50.720;7.452;2023-04-04T07:12:50;100424.38;;;0.17;100.00
30554;BME280;17335;50.720;7.452;2023-04-04T07:15:17;100423.41;;;0.45;100.00
30554;BME280;17335;50.720;7.452;2023-04-04T07:17:43;100422.75;;;0.63;100.00
30554;BME280;17335;50.720;7.452;2023-04-04T07:20:10;100426.47;;;0.83;100.00
30554;BME280;17335;50.720;7.452;2023-04-04T07:22:37;100424.34;;;0.92;100.00
30554;BME280;17335;50.720;7.452;2023-04-04T07:25:05;100421.41;;;1.00;100.00
30554;BME280;17335;50.720;7.452;2023-04-04T07:27:32;100418.31;;;1.12;100.00
30554;BME280;17335;50.720;7.452;2023-04-04T07:29:59;100431.41;;;1.16;100.00
30554;BME280;17335;50.720;7.452;2023-04-04T07:32:25;100437.41;;;1.21;100.00
30554;BME280;17335;50.720;7.452;2023-04-04T07:34:52;100436.25;;;1.28;100.00
30554;BME280;17335;50.720;7.452;2023-04-04T07:37:18;100430.47;;;1.40;100.00
30554;BME280;17335;50.720;7.452;2023-04-04T07:39:45;100430.97;;;1.50;100.00
30554;BME280;17335;50.720;7.452;2023-04-04T07:42:12;100427.03;;;1.60;100.00
30554;BME280;17335;50.720;7.452;2023-04-04T07:44:38;100426.31;;;1.57;100.00
30554;BME280;17335;50.720;7.452;2023-04-04T07:47:04;100426.72;;;1.68;100.00
30554;BME280;17335;50.720;7.452;2023-04-04T07:49:35;100429.25;;;1.71;100.00
30554;BME280;17335;50.720;7.452;2023-04-04T07:52:02;100418.78;;;1.68;100.00
30554;BME280;17335;50.720;7.452;2023-04-04T07:54:29;100424.56;;;1.78;100.00
30554;BME280;17335;50.720;7.452;2023-04-04T07:56:56;100422.00;;;1.76;100.00
30554;BME280;17335;50.720;7.452;2023-04-04T07:59:22;100423.50;;;1.82;100.00
30554;BME280;17335;50.720;7.452;2023-04-04T08:01:49;100420.50;;;1.91;100.00
30554;BME280;17335;50.720;7.452;2023-04-04T08:04:16;100419.09;;;1.82;100.00
30554;BME280;17335;50.720;7.452;2023-04-04T08:06:42;100418.78;;;1.90;100.00
30554;BME280;17335;50.720;7.452;2023-04-04T08:09:09;100423.22;;;1.90;100.00
30554;BME280;17335;50.720;7.452;2023-04-04T08:11:35;100409.28;;;2.06;100.00
30554;BME280;17335;50.720;7.452;2023-04-04T08:14:02;100415.31;;;2.10;100.00
30554;BME280;17335;50.720;7.452;2023-04-04T08:16:30;100404.31;;;2.19;100.00
30554;BME280;17335;50.720;7.452;2023-04-04T08:18:56;100400.09;;;2.15;100.00
30554;BME280;17335;50.720;7.452;2023-04-04T08:21:25;100399.75;;;2.23;100.00
30554;BME280;17335;50.720;7.452;2023-04-04T08:23:51;100392.25;;;2.33;100.00
30554;BME280;17335;50.720;7.452;2023-04-04T08:26:18;100399.88;;;2.40;100.00
30554;BME280;17335;50.720;7.452;2023-04-04T08:28:44;100403.41;;;2.41;100.00
30554;BME280;17335;50.720;7.452;2023-04-04T08:31:11;100404.97;;;2.45;100.00
30554;BME280;17335;50.720;7.452;2023-04-04T08:33:38;100399.81;;;2.42;100.00
30554;BME280;17335;50.720;7.452;2023-04-04T08:36:12;100405.56;;;2.52;100.00
30554;BME280;17335;50.720;7.452;2023-04-04T08:38:39;100404.84;;;2.48;100.00
30554;BME280;17335;50.720;7.452;2023-04-04T08:41:06;100405.16;;;2.40;100.00
30554;BME280;17335;50.720;7.452;2023-04-04T08:43:33;100408.88;;;2.36;99.51
30554;BME280;17335;50.720;7.452;2023-04-04T08:46:03;100397.94;;;2.44;100.00
30554;BME280;17335;50.720;7.452;2023-04-04T08:48:32;100396.75;;;2.72;100.00
30554;BME280;17335;50.720;7.452;2023-04-04T08:50:59;100393.22;;;2.90;100.00
30554;BME280;17335;50.720;7.452;2023-04-04T08:53:27;100393.03;;;2.95;100.00
30554;BME280;17335;50.720;7.452;2023-04-04T08:55:55;100394.69;;;2.97;100.00
30554;BME280;17335;50.720;7.452;2023-04-04T08:58:24;100386.88;;;2.94;97.00
30554;BME280;17335;50.720;7.452;2023-04-04T09:00:54;100381.72;;;2.91;92.35
30554;BME280;17335;50.720;7.452;2023-04-04T09:03:26;100385.59;;;3.03;100.00
30554;BME280;17335;50.720;7.452;2023-04-04T09:05:56;100384.00;;;3.18;100.00
30554;BME280;17335;50.720;7.452;2023-04-04T09:08:23;100375.81;;;3.04;92.86
30554;BME280;17335;50.720;7.452;2023-04-04T09:10:50;100386.31;;;3.07;94.93
30554;BME280;17335;50.720;7.452;2023-04-04T09:13:18;100379.78;;;2.95;87.75
30554;BME280;17335;50.720;7.452;2023-04-04T09:15:50;100368.50;;;3.09;92.66
30554;BME280;17335;50.720;7.452;2023-04-04T09:18:17;100368.25;;;3.15;91.58
30554;BME280;17335;50.720;7.452;2023-04-04T09:20:45;100372.25;;;3.24;92.97
30554;BME280;17335;50.720;7.452;2023-04-04T09:23:14;100368.28;;;3.32;89.18
30554;BME280;17335;50.720;7.452;2023-04-04T09:25:59;100358.19;;;3.41;88.25
30554;BME280;17335;50.720;7.452;2023-04-04T09:28:29;100367.69;;;3.45;93.65
30554;BME280;17335;50.720;7.452;2023-04-04T09:30:59;100352.25;;;3.53;89.63
30554;BME280;17335;50.720;7.452;2023-04-04T09:33:26;100364.88;;;3.67;89.53
30554;BME280;17335;50.720;7.452;2023-04-04T09:36:19;100365.56;;;3.70;95.19
30554;BME280;17335;50.720;7.452;2023-04-04T09:38:46;100360.41;;;3.67;90.20
30554;BME280;17335;50.720;7.452;2023-04-04T09:41:14;100361.75;;;3.76;91.68
30554;BME280;17335;50.720;7.452;2023-04-04T09:43:43;100365.59;;;3.88;90.06
30554;BME280;17335;50.720;7.452;2023-04-04T09:46:11;100362.00;;;4.06;90.18
30554;BME280;17335;50.720;7.452;2023-04-04T09:48:38;100354.78;;;4.26;91.83
30554;BME280;17335;50.720;7.452;2023-04-04T09:51:05;100360.75;;;3.96;82.46
30554;BME280;17335;50.720;7.452;2023-04-04T09:53:35;100356.50;;;3.74;81.90
30554;BME280;17335;50.720;7.452;2023-04-04T09:56:04;100364.25;;;3.97;89.03
30554;BME280;17335;50.720;7.452;2023-04-04T09:58:31;100355.91;;;4.22;91.22
30554;BME280;17335;50.720;7.452;2023-04-04T10:01:03;100355.56;;;4.28;88.49
30554;BME280;17335;50.720;7.452;2023-04-04T10:03:35;100357.91;;;4.34;87.80
30554;BME280;17335;50.720;7.452;2023-04-04T10:06:06;100358.66;;;4.54;89.92
30554;BME280;17335;50.720;7.452;2023-04-04T10:08:33;100357.56;;;4.58;83.05
30554;BME280;17335;50.720;7.452;2023-04-04T10:11:03;100364.56;;;4.43;83.01
30554;BME280;17335;50.720;7.452;2023-04-04T10:13:36;100361.53;;;4.66;85.60
30554;BME280;17335;50.720;7.452;2023-04-04T10:16:07;100361.72;;;4.79;77.38
30554;BME280;17335;50.720;7.452;2023-04-04T10:18:35;100359.66;;;4.84;74.18
30554;BME280;17335;50.720;7.452;2023-04-04T10:21:04;100358.66;;;4.87;73.79
30554;BME280;17335;50.720;7.452;2023-04-04T10:23:41;100353.66;;;4.81;72.57
30554;BME280;17335;50.720;7.452;2023-04-04T10:26:10;100346.81;;;4.93;75.38
30554;BME280;17335;50.720;7.452;2023-04-04T10:28:37;100338.06;;;4.91;72.44
30554;BME280;17335;50.720;7.452;2023-04-04T10:31:22;100337.47;;;4.85;66.98
30554;BME280;17335;50.720;7.452;2023-04-04T10:34:09;100350.41;;;4.92;69.17
30554;BME280;17335;50.720;7.452;2023-04-04T10:37:14;100339.88;;;4.90;64.71
30554;BME280;17335;50.720;7.452;2023-04-04T10:39:44;100339.13;;;5.04;68.89
30554;BME280;17335;50.720;7.452;2023-04-04T10:42:14;100327.41;;;5.06;64.70
30554;BME280;17335;50.720;7.452;2023-04-04T10:44:42;100335.16;;;5.27;62.29
30554;BME280;17335;50.720;7.452;2023-04-04T10:47:18;100329.84;;;5.11;60.32
30554;BME280;17335;50.720;7.452;2023-04-04T10:49:49;100335.34;;;5.40;61.75
30554;BME280;17335;50.720;7.452;2023-04-04T10:52:17;100341.06;;;5.48;59.48
30554;BME280;17335;50.720;7.452;2023-04-04T10:54:45;100328.72;;;5.47;58.33
30554;BME280;17335;50.720;7.452;2023-04-04T10:57:14;100326.50;;;5.70;59.46
30554;BME280;17335;50.720;7.452;2023-04-04T10:59:59;100311.22;;;6.04;58.18
30554;BME280;17335;50.720;7.452;2023-04-04T11:03:04;100313.16;;;6.16;57.61
30554;BME280;17335;50.720;7.452;2023-04-04T11:05:36;100296.00;;;6.06;56.16
30554;BME280;17335;50.720;7.452;2023-04-04T11:08:08;100293.34;;;6.06;56.23
30554;BME280;17335;50.720;7.452;2023-04-04T11:10:46;100288.59;;;6.11;55.33
30554;BME280;17335;50.720;7.452;2023-04-04T11:13:23;100290.94;;;6.15;54.96
30554;BME280;17335;50.720;7.452;2023-04-04T11:16:03;100287.66;;;6.26;57.61
30554;BME280;17335;50.720;7.452;2023-04-04T11:21:16;100284.03;;;6.56;56.30
30554;BME280;17335;50.720;7.452;2023-04-04T11:28:55;100276.81;;;6.29;55.14
30554;BME280;17335;50.720;7.452;2023-04-04T11:31:24;100264.19;;;6.60;58.10
30554;BME280;17335;50.720;7.452;2023-04-04T11:44:19;100252.00;;;6.56;54.26
30554;BME280;17335;50.720;7.452;2023-04-04T11:46:46;100256.22;;;6.46;54.97
30554;BME280;17335;50.720;7.452;2023-04-04T11:49:16;100246.50;;;6.59;52.30
30554;BME280;17335;50.720;7.452;2023-04-04T11:51:44;100241.34;;;6.98;55.45
30554;BME280;17335;50.720;7.452;2023-04-04T11:54:15;100239.50;;;7.12;53.30
30554;BME280;17335;50.720;7.452;2023-04-04T11:56:43;100238.50;;;7.28;55.88
30554;BME280;17335;50.720;7.452;2023-04-04T11:59:11;100231.03;;;7.33;55.27
30554;BME280;17335;50.720;7.452;2023-04-04T12:01:38;100239.22;;;7.17;54.91
30554;BME280;17335;50.720;7.452;2023-04-04T12:04:05;100243.00;;;7.13;53.48
30554;BME280;17335;50.720;7.452;2023-04-04T12:06:33;100230.41;;;7.42;54.48
30554;BME280;17335;50.720;7.452;2023-04-04T12:09:01;100226.72;;;7.83;55.40
30554;BME280;17335;50.720;7.452;2023-04-04T12:11:35;100234.34;;;7.37;51.33
30554;BME280;17335;50.720;7.452;2023-04-04T12:14:02;100220.81;;;7.12;51.73
30554;BME280;17335;50.720;7.452;2023-04-04T12:16:28;100216.75;;;7.47;51.67
30554;BME280;17335;50.720;7.452;2023-04-04T12:19:00;100199.88;;;7.46;50.43
30554;BME280;17335;50.720;7.452;2023-04-04T12:21:30;100217.28;;;7.65;51.49
30554;BME280;17335;50.720;7.452;2023-04-04T12:23:57;100215.28;;;7.81;53.01
30554;BME280;17335;50.720;7.452;2023-04-04T12:26:24;100212.72;;;7.67;50.57
30554;BME280;17335;50.720;7.452;2023-04-04T12:28:55;100210.81;;;7.69;50.32
30554;BME280;17335;50.720;7.452;2023-04-04T12:31:24;100199.47;;;7.78;51.05
30554;BME280;17335;50.720;7.452;2023-04-04T12:33:52;100192.63;;;7.87;49.92
30554;BME280;17335;50.720;7.452;2023-04-04T12:36:19;100189.94;;;7.87;47.98
30554;BME280;17335;50.720;7.452;2023-04-04T12:39:06;100191.66;;;7.88;46.34
30554;BME280;17335;50.720;7.452;2023-04-04T12:41:34;100193.69;;;7.72;46.17
30554;BME280;17335;50.720;7.452;2023-04-04T12:44:05;100191.44;;;8.04;47.68
30554;BME280;17335;50.720;7.452;2023-04-04T12:46:36;100188.06;;;7.89;46.63
30554;BME280;17335;50.720;7.452;2023-04-04T12:49:08;100187.63;;;7.82;46.75
30554;BME280;17335;50.720;7.452;2023-04-04T12:51:36;100186.22;;;7.89;47.75
30554;BME280;17335;50.720;7.452;2023-04-04T12:54:04;100194.34;;;8.01;45.14
30554;BME280;17335;50.720;7.452;2023-04-04T12:56:34;100186.31;;;7.88;45.88
30554;BME280;17335;50.720;7.452;2023-04-04T12:59:02;100182.25;;;7.95;46.33
30554;BME280;17335;50.720;7.452;2023-04-04T13:01:30;100186.88;;;7.93;46.41
30554;BME280;17335;50.720;7.452;2023-04-04T13:04:01;100173.97;;;8.37;46.22
30554;BME280;17335;50.720;7.452;2023-04-04T13:06:31;100169.72;;;8.34;46.21
30554;BME280;17335;50.720;7.452;2023-04-04T13:08:58;100172.91;;;8.26;44.57
30554;BME280;17335;50.720;7.452;2023-04-04T13:11:25;100156.19;;;8.61;47.85
30554;BME280;17335;50.720;7.452;2023-04-04T13:14:00;100150.59;;;8.64;46.21
30554;BME280;17335;50.720;7.452;2023-04-04T13:16:32;100140.13;;;8.86;44.43